Terminal Aerodrome Forecast
Issued by NWS Melbourne, FL

Home | Current Version | Previous Version | Text Only | Print | Product List | Glossary On
Versions: 1 2 3 4 5 6 7 8 9 10 11 12 13 14
000
FTUS42 KMLB 240530
TAFMLB
TAF
KMLB 240530Z 2406/2506 28010KT P6SM SKC WS015/30035KT
     FM241400 28013KT P6SM SKC
     FM250000 26007KT P6SM SKC=

USA.gov is the U.S. government's official web portal to all federal, state and local government web resources and services.